Time;durP1;ratioP1;P1;durP2;ratioP2;P2;SDS_P1;SDS_P2;PMS_P1;PMS_P2;Temp;Humidity;BMP_temperature;BMP_pressure;BME280_temperature;BME280_humidity;BME280_pressure;Samples;Min_cycle;Max_cycle;Signal;HPM_P1;HPM_P2
2022/03/05 00:00:20;;;;;;;;;;;;;;;-144.99;100.00;61100.13;5079030;28;19999;-73
2022/03/05 00:02:47;;;;;;;;;;;;;;;-144.99;100.00;61100.13;5073069;28;20087;-73
2022/03/05 00:05:13;;;;;;;;;;;;;;;-144.99;100.00;61100.13;5079915;28;19973;-74
2022/03/05 00:07:40;;;;;;;;;;;;;;;-144.99;100.00;61100.13;5083293;28;19993;-73
2022/03/05 00:10:06;;;;;;;;;;;;;;;-144.99;100.00;61100.13;5073931;28;20156;-74
2022/03/05 00:12:33;;;;;;;;;;;;;;;-144.99;100.00;61100.13;5073819;28;19996;-74
2022/03/05 00:14:59;;;;;;;;;;;;;;;-144.99;100.00;61100.13;5087828;28;19981;-74
2022/03/05 00:17:27;;;;;;;;;;;;;;;-144.99;100.00;61100.13;5102854;28;19984;-73
2022/03/05 00:19:54;;;;;;;;;;;;;;;-144.99;100.00;61100.13;5096496;28;19963;-75
2022/03/05 00:22:20;;;;;;;;;;;;;;;-144.99;100.00;61100.13;5087696;28;19992;-74
2022/03/05 00:24:47;;;;;;;;;;;;;;;-144.99;100.00;61100.13;5077250;28;19983;-75
2022/03/05 00:27:13;;;;;;;;;;;;;;;-144.99;100.00;61100.13;5084905;28;20420;-74
2022/03/05 00:29:40;;;;;;;;;;;;;;;-144.99;100.00;61100.13;5078105;28;20027;-74
2022/03/05 00:32:07;;;;;;;;;;;;;;;-144.99;100.00;61100.13;5071251;28;20042;-74
2022/03/05 00:34:34;;;;;;;;;;;;;;;-144.99;100.00;61100.13;5071362;28;20363;-75
2022/03/05 00:37:01;;;;;;;;;;;;;;;-144.99;100.00;61100.13;5081467;28;19992;-74
2022/03/05 00:39:27;;;;;;;;;;;;;;;-144.99;100.00;61100.13;5072621;28;19985;-76
2022/03/05 00:41:53;;;;;;;;;;;;;;;-144.99;100.00;61100.13;5070587;28;19973;-76
2022/03/05 00:44:20;;;;;;;;;;;;;;;-144.99;100.00;61100.13;5080832;28;19972;-76
2022/03/05 00:46:46;;;;;;;;;;;;;;;-144.99;100.00;61100.13;5071798;28;19962;-76
2022/03/05 00:49:12;;;;;;;;;;;;;;;-144.99;100.00;61100.13;5071258;28;19993;-75
2022/03/05 00:51:40;;;;;;;;;;;;;;;-144.99;100.00;61100.13;5073491;28;19983;-75
2022/03/05 00:54:06;;;;;;;;;;;;;;;-144.99;100.00;61100.13;5071695;28;19987;-75
2022/03/05 00:56:33;;;;;;;;;;;;;;;-144.99;100.00;61100.13;5075252;28;19977;-75
2022/03/05 00:58:59;;;;;;;;;;;;;;;-144.99;100.00;61100.13;5073647;28;20145;-76
2022/03/05 01:01:26;;;;;;;;;;;;;;;-144.99;100.00;61100.13;5078968;28;20339;-74
2022/03/05 01:03:52;;;;;;;;;;;;;;;-144.99;100.00;61100.13;5075802;28;20003;-74
2022/03/05 01:06:18;;;;;;;;;;;;;;;-144.99;100.00;61100.13;5077292;28;19973;-76
2022/03/05 01:08:46;;;;;;;;;;;;;;;-144.99;100.00;61100.13;5075560;28;20004;-76
2022/03/05 01:11:16;;;;;;;;;;;;;;;-144.99;100.00;61100.13;5071015;28;19944;-75
2022/03/05 01:13:42;;;;;;;;;;;;;;;-144.99;100.00;61100.13;5082466;28;20016;-74
2022/03/05 01:16:08;;;;;;;;;;;;;;;-144.99;100.00;61100.13;5064686;28;19981;-75
2022/03/05 01:18:35;;;;;;;;;;;;;;;-144.99;100.00;61100.13;5072160;28;19976;-76
2022/03/05 01:21:02;;;;;;;;;;;;;;;-144.99;100.00;61100.13;5068533;28;19973;-73
2022/03/05 01:23:28;;;;;;;;;;;;;;;-144.99;100.00;61100.13;5080324;28;20441;-76
2022/03/05 01:25:56;;;;;;;;;;;;;;;-144.99;100.00;61100.13;5072408;28;20279;-76
2022/03/05 01:28:22;;;;;;;;;;;;;;;-144.99;100.00;61100.13;5072088;28;20004;-76
2022/03/05 01:30:48;;;;;;;;;;;;;;;-144.99;100.00;61100.13;5071144;28;19976;-76
2022/03/05 01:33:15;;;;;;;;;;;;;;;-144.99;100.00;61100.13;5084655;28;19995;-77
2022/03/05 01:35:41;;;;;;;;;;;;;;;-144.99;100.00;61100.13;5080551;28;20355;-76
2022/03/05 01:38:07;;;;;;;;;;;;;;;-144.99;100.00;61100.13;5083883;28;20385;-75
2022/03/05 01:40:34;;;;;;;;;;;;;;;-144.99;100.00;61100.13;5079712;28;19981;-73
2022/03/05 01:43:02;;;;;;;;;;;;;;;-144.99;100.00;61100.13;5079961;28;20000;-75
2022/03/05 01:45:28;;;;;;;;;;;;;;;-144.99;100.00;61100.13;5080559;28;19992;-75
2022/03/05 01:47:54;;;;;;;;;;;;;;;-144.99;100.00;61100.13;5071039;28;19976;-75
2022/03/05 01:50:21;;;;;;;;;;;;;;;-144.99;100.00;61100.13;5072245;28;20201;-76
2022/03/05 01:52:47;;;;;;;;;;;;;;;-144.99;100.00;61100.13;5077959;28;19993;-77
2022/03/05 01:55:14;;;;;;;;;;;;;;;-144.99;100.00;61100.13;5082218;28;19979;-75
2022/03/05 01:57:40;;;;;;;;;;;;;;;-144.99;100.00;61100.13;5075189;28;19981;-76
2022/03/05 02:00:09;;;;;;;;;;;;;;;-144.99;100.00;61100.13;5074602;28;19980;-75
2022/03/05 02:02:36;;;;;;;;;;;;;;;-144.99;100.00;61100.13;5073203;28;20004;-76
2022/03/05 02:05:02;;;;;;;;;;;;;;;-144.99;100.00;61100.13;5092806;28;19981;-76
2022/03/05 02:07:29;;;;;;;;;;;;;;;-144.99;100.00;61100.13;5097633;28;20506;-78
2022/03/05 02:09:55;;;;;;;;;;;;;;;-144.99;100.00;61100.13;5098317;28;20045;-78
2022/03/05 02:12:27;;;;;;;;;;;;;;;-144.99;100.00;61100.13;5096215;28;19998;-78
2022/03/05 02:14:53;;;;;;;;;;;;;;;-144.99;100.00;61100.13;5101211;28;20003;-77
2022/03/05 02:17:21;;;;;;;;;;;;;;;-144.99;100.00;61100.13;5096664;28;19979;-76
2022/03/05 02:19:47;;;;;;;;;;;;;;;-144.99;100.00;61100.13;5093726;28;19984;-78
2022/03/05 02:22:15;;;;;;;;;;;;;;;-144.99;100.00;61100.13;5092127;28;20003;-77
2022/03/05 02:24:41;;;;;;;;;;;;;;;-144.99;100.00;61100.13;5091747;28;19977;-74
2022/03/05 02:27:08;;;;;;;;;;;;;;;-144.99;100.00;61100.13;5074042;28;19988;-74
2022/03/05 02:29:35;;;;;;;;;;;;;;;-144.99;100.00;61100.13;5072246;28;19997;-75
2022/03/05 02:32:02;;;;;;;;;;;;;;;-144.99;100.00;61100.13;5072557;28;19988;-74
2022/03/05 02:34:29;;;;;;;;;;;;;;;-144.99;100.00;61100.13;5083361;28;19973;-74
2022/03/05 02:36:55;;;;;;;;;;;;;;;-144.99;100.00;61100.13;5072458;28;19984;-74
2022/03/05 02:39:24;;;;;;;;;;;;;;;-144.99;100.00;61100.13;5083614;28;19959;-74
2022/03/05 02:41:50;;;;;;;;;;;;;;;-144.99;100.00;61100.13;5076951;28;20082;-73
2022/03/05 02:44:17;;;;;;;;;;;;;;;-144.99;100.00;61100.13;5090545;28;20432;-73
2022/03/05 02:46:43;;;;;;;;;;;;;;;-144.99;100.00;61100.13;5078676;28;19977;-75
2022/03/05 02:49:10;;;;;;;;;;;;;;;-144.99;100.00;61100.13;5088077;28;19996;-75
2022/03/05 02:51:36;;;;;;;;;;;;;;;-144.99;100.00;61100.13;5106025;28;20052;-75
2022/03/05 02:54:02;;;;;;;;;;;;;;;-144.99;100.00;61100.13;5105582;28;19993;-74
2022/03/05 02:56:30;;;;;;;;;;;;;;;-144.99;100.00;61100.13;5100397;28;19949;-75
2022/03/05 02:58:56;;;;;;;;;;;;;;;-144.99;100.00;61100.13;5097140;28;19981;-75
2022/03/05 03:01:24;;;;;;;;;;;;;;;-144.99;100.00;61100.13;5096998;28;20054;-75
2022/03/05 03:03:50;;;;;;;;;;;;;;;-144.99;100.00;61100.13;5105107;28;20063;-74
2022/03/05 03:06:17;;;;;;;;;;;;;;;-144.99;100.00;61100.13;5104496;28;19976;-74
2022/03/05 03:08:44;;;;;;;;;;;;;;;-144.99;100.00;61100.13;5097426;28;19956;-75
2022/03/05 03:11:10;;;;;;;;;;;;;;;-144.99;100.00;61100.13;5092875;28;19962;-75
2022/03/05 03:13:38;;;;;;;;;;;;;;;-144.99;100.00;61100.13;5077236;28;20538;-74
2022/03/05 03:16:05;;;;;;;;;;;;;;;-144.99;100.00;61100.13;5087419;28;19977;-74
2022/03/05 03:18:31;;;;;;;;;;;;;;;-144.99;100.00;61100.13;5076080;28;19985;-74
2022/03/05 03:20:58;;;;;;;;;;;;;;;-144.99;100.00;61100.13;5075555;28;20325;-74
2022/03/05 03:23:24;;;;;;;;;;;;;;;-144.99;100.00;61100.13;5073053;28;19989;-74
2022/03/05 03:25:50;;;;;;;;;;;;;;;-144.99;100.00;61100.13;5092506;28;19998;-74
2022/03/05 03:28:17;;;;;;;;;;;;;;;-144.99;100.00;61100.13;5077929;28;19984;-74
2022/03/05 03:30:44;;;;;;;;;;;;;;;-144.99;100.00;61100.13;5075188;28;20004;-73
2022/03/05 03:33:11;;;;;;;;;;;;;;;-144.99;100.00;61100.13;5076456;28;19989;-70
2022/03/05 03:35:37;;;;;;;;;;;;;;;-144.99;100.00;61100.13;5086898;28;19977;-73
2022/03/05 03:38:03;;;;;;;;;;;;;;;-144.99;100.00;61100.13;5075854;28;19962;-73
2022/03/05 03:40:30;;;;;;;;;;;;;;;-144.99;100.00;61100.13;5078002;28;20000;-73
2022/03/05 03:42:56;;;;;;;;;;;;;;;-144.99;100.00;61100.13;5072479;28;19985;-73
2022/03/05 03:45:23;;;;;;;;;;;;;;;-144.99;100.00;61100.13;5075341;28;19980;-73
2022/03/05 03:47:52;;;;;;;;;;;;;;;-144.99;100.00;61100.13;5073455;28;19999;-73
2022/03/05 03:50:20;;;;;;;;;;;;;;;-144.99;100.00;61100.13;5085965;28;19988;-73
2022/03/05 03:52:47;;;;;;;;;;;;;;;-144.99;100.00;61100.13;5081749;28;20211;-72
2022/03/05 03:55:14;;;;;;;;;;;;;;;-144.99;100.00;61100.13;5075862;28;19979;-72
2022/03/05 03:57:41;;;;;;;;;;;;;;;-144.99;100.00;61100.13;5084966;28;20352;-75
2022/03/05 04:00:09;;;;;;;;;;;;;;;-144.99;100.00;61100.13;5073949;28;20448;-71
2022/03/05 04:02:36;;;;;;;;;;;;;;;-144.99;100.00;61100.13;5070381;28;20000;-72
2022/03/05 04:05:04;;;;;;;;;;;;;;;-144.99;100.00;61100.13;5087850;28;19984;-73
2022/03/05 04:10:14;;;;;;;;;;;;;;;-144.99;100.00;61100.13;5081646;28;20413;-72
2022/03/05 04:12:40;;;;;;;;;;;;;;;-144.99;100.00;61100.13;5074108;28;20478;-72
2022/03/05 04:15:07;;;;;;;;;;;;;;;-144.99;100.00;61100.13;5080145;28;19973;-72
2022/03/05 04:17:34;;;;;;;;;;;;;;;-144.99;100.00;61100.13;5077915;28;19977;-72
2022/03/05 04:20:00;;;;;;;;;;;;;;;-144.99;100.00;61100.13;5073057;28;19977;-72
2022/03/05 04:22:27;;;;;;;;;;;;;;;-144.99;100.00;61100.13;5071360;28;19993;-71
2022/03/05 04:24:54;;;;;;;;;;;;;;;-144.99;100.00;61100.13;5070311;28;20482;-72
2022/03/05 04:27:20;;;;;;;;;;;;;;;-144.99;100.00;61100.13;5083228;28;19980;-72
2022/03/05 04:29:46;;;;;;;;;;;;;;;-144.99;100.00;61100.13;5079552;28;19997;-72
2022/03/05 04:32:13;;;;;;;;;;;;;;;-144.99;100.00;61100.13;5083023;28;19963;-73
2022/03/05 04:34:39;;;;;;;;;;;;;;;-144.99;100.00;61100.13;5072162;28;20464;-73
2022/03/05 04:37:05;;;;;;;;;;;;;;;-144.99;100.00;61100.13;5082849;28;20072;-73
2022/03/05 04:39:33;;;;;;;;;;;;;;;-144.99;100.00;61100.13;5070916;28;19988;-72
2022/03/05 04:41:59;;;;;;;;;;;;;;;-144.99;100.00;61100.13;5080775;28;19996;-74
2022/03/05 04:44:26;;;;;;;;;;;;;;;-144.99;100.00;61100.13;5073350;28;19984;-75
2022/03/05 04:46:52;;;;;;;;;;;;;;;-144.99;100.00;61100.13;5110709;28;19965;-75
2022/03/05 04:49:19;;;;;;;;;;;;;;;-144.99;100.00;61100.13;5086708;28;19999;-73
2022/03/05 04:51:45;;;;;;;;;;;;;;;-144.99;100.00;61100.13;5090813;28;19977;-74
2022/03/05 04:54:11;;;;;;;;;;;;;;;-144.99;100.00;61100.13;5073719;28;19984;-74
2022/03/05 04:56:39;;;;;;;;;;;;;;;-144.99;100.00;61100.13;5083040;28;20435;-74
2022/03/05 04:59:05;;;;;;;;;;;;;;;-144.99;100.00;61100.13;5075942;28;19981;-74
2022/03/05 05:01:32;;;;;;;;;;;;;;;-144.99;100.00;61100.13;5072083;28;19985;-73
2022/03/05 05:03:58;;;;;;;;;;;;;;;-144.99;100.00;61100.13;5070556;28;20004;-74
2022/03/05 05:06:25;;;;;;;;;;;;;;;-144.99;100.00;61100.13;5084640;28;19977;-74
2022/03/05 05:08:51;;;;;;;;;;;;;;;-144.99;100.00;61100.13;5074300;28;20038;-74
2022/03/05 05:11:18;;;;;;;;;;;;;;;-144.99;100.00;61100.13;5095705;28;20050;-74
2022/03/05 05:13:46;;;;;;;;;;;;;;;-144.99;100.00;61100.13;5086931;28;19996;-73
2022/03/05 05:16:12;;;;;;;;;;;;;;;-144.99;100.00;61100.13;5076601;28;19972;-75
2022/03/05 05:18:38;;;;;;;;;;;;;;;-144.99;100.00;61100.13;5071040;28;19983;-73
2022/03/05 05:21:05;;;;;;;;;;;;;;;-144.99;100.00;61100.13;5072133;28;20486;-74
2022/03/05 05:23:31;;;;;;;;;;;;;;;-144.99;100.00;61100.13;5057774;28;20003;-75
2022/03/05 05:25:57;;;;;;;;;;;;;;;-144.99;100.00;61100.13;5073027;28;19977;-74
2022/03/05 05:28:24;;;;;;;;;;;;;;;-144.99;100.00;61100.13;5073575;28;20367;-74
2022/03/05 05:30:51;;;;;;;;;;;;;;;-144.99;100.00;61100.13;5072046;28;19997;-73
2022/03/05 05:33:19;;;;;;;;;;;;;;;-144.99;100.00;61100.13;5071124;28;20004;-74
2022/03/05 05:35:46;;;;;;;;;;;;;;;-144.99;100.00;61100.13;5078225;28;19992;-74
2022/03/05 05:38:12;;;;;;;;;;;;;;;-144.99;100.00;61100.13;5076838;28;19983;-74
2022/03/05 05:40:38;;;;;;;;;;;;;;;-144.99;100.00;61100.13;5078186;28;19976;-74
2022/03/05 05:43:05;;;;;;;;;;;;;;;-144.99;100.00;61100.13;5071258;28;20480;-73
2022/03/05 05:45:31;;;;;;;;;;;;;;;-144.99;100.00;61100.13;5069606;28;19974;-73
2022/03/05 05:48:01;;;;;;;;;;;;;;;-144.99;100.00;61100.13;5077414;28;19977;-73
2022/03/05 05:50:27;;;;;;;;;;;;;;;-144.99;100.00;61100.13;5077716;28;20080;-73
2022/03/05 05:52:54;;;;;;;;;;;;;;;-144.99;100.00;61100.13;5081548;28;20371;-73
2022/03/05 05:55:20;;;;;;;;;;;;;;;-144.99;100.00;61100.13;5077508;28;19981;-75
2022/03/05 05:57:46;;;;;;;;;;;;;;;-144.99;100.00;61100.13;5103623;28;19965;-74
2022/03/05 06:00:13;;;;;;;;;;;;;;;-144.99;100.00;61100.13;5078782;28;20424;-73
2022/03/05 06:02:39;;;;;;;;;;;;;;;-144.99;100.00;61100.13;5070749;28;20005;-73
2022/03/05 06:05:08;;;;;;;;;;;;;;;-144.99;100.00;61100.13;5069379;28;19995;-73
2022/03/05 06:07:34;;;;;;;;;;;;;;;-144.99;100.00;61100.13;5078831;28;19992;-73
2022/03/05 06:10:00;;;;;;;;;;;;;;;-144.99;100.00;61100.13;5070403;28;20057;-73
2022/03/05 06:12:27;;;;;;;;;;;;;;;-144.99;100.00;61100.13;5077386;28;19988;-73
2022/03/05 06:14:53;;;;;;;;;;;;;;;-144.99;100.00;61100.13;5077804;28;19981;-73
2022/03/05 06:17:20;;;;;;;;;;;;;;;-144.99;100.00;61100.13;5078142;28;19973;-73
2022/03/05 06:19:46;;;;;;;;;;;;;;;-144.99;100.00;61100.13;5079012;28;19976;-73
2022/03/05 06:22:14;;;;;;;;;;;;;;;-144.99;100.00;61100.13;5068297;28;20494;-72
2022/03/05 06:24:40;;;;;;;;;;;;;;;-144.99;100.00;61100.13;5066821;28;19987;-73
2022/03/05 06:27:07;;;;;;;;;;;;;;;-144.99;100.00;61100.13;5086902;28;19980;-73
2022/03/05 06:29:35;;;;;;;;;;;;;;;-144.99;100.00;61100.13;5079927;28;20273;-72
2022/03/05 06:32:02;;;;;;;;;;;;;;;-144.99;100.00;61100.13;5075639;28;19997;-73
2022/03/05 06:34:28;;;;;;;;;;;;;;;-144.99;100.00;61100.13;5080203;28;19981;-73
2022/03/05 06:36:55;;;;;;;;;;;;;;;-144.99;100.00;61100.13;5079391;28;19981;-73
2022/03/05 06:39:22;;;;;;;;;;;;;;;-144.99;100.00;61100.13;5092460;28;19977;-73
2022/03/05 06:41:49;;;;;;;;;;;;;;;-144.99;100.00;61100.13;5075694;28;20446;-74
2022/03/05 06:44:15;;;;;;;;;;;;;;;-144.99;100.00;61100.13;5079846;28;20020;-73
2022/03/05 06:46:42;;;;;;;;;;;;;;;-144.99;100.00;61100.13;5081654;28;19991;-73
2022/03/05 06:49:08;;;;;;;;;;;;;;;-144.99;100.00;61100.13;5080372;28;20119;-73
2022/03/05 06:51:34;;;;;;;;;;;;;;;-144.99;100.00;61100.13;5090358;28;19999;-72
2022/03/05 06:54:01;;;;;;;;;;;;;;;-144.99;100.00;61100.13;5075705;28;20000;-74
2022/03/05 06:56:28;;;;;;;;;;;;;;;-144.99;100.00;61100.13;5079578;28;19957;-72
2022/03/05 06:58:55;;;;;;;;;;;;;;;-144.99;100.00;61100.13;5076389;28;20059;-72
2022/03/05 07:01:21;;;;;;;;;;;;;;;-144.99;100.00;61100.13;5074724;28;19987;-72
2022/03/05 07:03:47;;;;;;;;;;;;;;;-144.99;100.00;61100.13;5073460;28;20013;-74
2022/03/05 07:06:13;;;;;;;;;;;;;;;-144.99;100.00;61100.13;5072543;28;20442;-73
2022/03/05 07:08:40;;;;;;;;;;;;;;;-144.99;100.00;61100.13;5081081;28;19977;-73
2022/03/05 07:11:06;;;;;;;;;;;;;;;-144.99;100.00;61100.13;5074150;28;19995;-73
2022/03/05 07:13:35;;;;;;;;;;;;;;;-144.99;100.00;61100.13;5083338;28;19999;-73
2022/03/05 07:16:01;;;;;;;;;;;;;;;-144.99;100.00;61100.13;5073848;28;19977;-72
2022/03/05 07:18:28;;;;;;;;;;;;;;;-144.99;100.00;61100.13;5076611;28;20470;-72
2022/03/05 07:20:54;;;;;;;;;;;;;;;-144.99;100.00;61100.13;5082594;28;19988;-72
2022/03/05 07:23:20;;;;;;;;;;;;;;;-144.99;100.00;61100.13;5073730;28;19992;-72
2022/03/05 07:25:47;;;;;;;;;;;;;;;-144.99;100.00;61100.13;5072206;28;19956;-72
2022/03/05 07:28:13;;;;;;;;;;;;;;;-144.99;100.00;61100.13;5081680;28;19972;-72
2022/03/05 07:30:42;;;;;;;;;;;;;;;-144.99;100.00;61100.13;5073773;28;19997;-73
2022/03/05 07:33:09;;;;;;;;;;;;;;;-144.99;100.00;61100.13;5073541;28;20020;-71
2022/03/05 07:35:35;;;;;;;;;;;;;;;-144.99;100.00;61100.13;5073805;28;20367;-72
2022/03/05 07:38:02;;;;;;;;;;;;;;;-144.99;100.00;61100.13;5074108;28;19976;-72
2022/03/05 07:40:28;;;;;;;;;;;;;;;-144.99;100.00;61100.13;5079661;28;19975;-72
2022/03/05 07:42:55;;;;;;;;;;;;;;;-144.99;100.00;61100.13;5080240;28;20003;-72
2022/03/05 07:45:21;;;;;;;;;;;;;;;-144.99;100.00;61100.13;5082822;28;20246;-73
2022/03/05 07:47:49;;;;;;;;;;;;;;;-144.99;100.00;61100.13;5070733;28;20001;-74
2022/03/05 07:50:15;;;;;;;;;;;;;;;-144.99;100.00;61100.13;5081245;28;19992;-74
2022/03/05 07:52:42;;;;;;;;;;;;;;;-144.99;100.00;61100.13;5085469;28;20334;-75
2022/03/05 07:55:08;;;;;;;;;;;;;;;-144.99;100.00;61100.13;5087713;28;19925;-76
2022/03/05 07:57:35;;;;;;;;;;;;;;;-144.99;100.00;61100.13;5097007;28;19985;-75
2022/03/05 08:00:01;;;;;;;;;;;;;;;-144.99;100.00;61100.13;5091505;28;19973;-74
2022/03/05 08:02:27;;;;;;;;;;;;;;;-144.99;100.00;61100.13;5094684;28;20044;-73
2022/03/05 08:04:55;;;;;;;;;;;;;;;-144.99;100.00;61100.13;5088180;28;19983;-72
2022/03/05 08:07:23;;;;;;;;;;;;;;;-144.99;100.00;61100.13;5083765;28;19970;-73
2022/03/05 08:09:49;;;;;;;;;;;;;;;-144.99;100.00;61100.13;5094430;28;19969;-72
2022/03/05 08:12:15;;;;;;;;;;;;;;;-144.99;100.00;61100.13;5097450;28;19983;-73
2022/03/05 08:14:43;;;;;;;;;;;;;;;-144.99;100.00;61100.13;5100487;28;19997;-72
2022/03/05 08:17:09;;;;;;;;;;;;;;;-144.99;100.00;61100.13;5086681;28;19964;-74
2022/03/05 08:19:36;;;;;;;;;;;;;;;-144.99;100.00;61100.13;5093010;28;19970;-74
2022/03/05 08:22:04;;;;;;;;;;;;;;;-144.99;100.00;61100.13;5089582;28;19995;-72
2022/03/05 08:24:30;;;;;;;;;;;;;;;-144.99;100.00;61100.13;5089258;28;20046;-76
2022/03/05 08:26:57;;;;;;;;;;;;;;;-144.99;100.00;61100.13;5088259;28;19989;-77
2022/03/05 08:29:23;;;;;;;;;;;;;;;-144.99;100.00;61100.13;5096355;28;19981;-75
2022/03/05 08:31:50;;;;;;;;;;;;;;;-144.99;100.00;61100.13;5089534;28;20018;-74
2022/03/05 08:34:16;;;;;;;;;;;;;;;-144.99;100.00;61100.13;5088776;28;19983;-75
2022/03/05 08:36:44;;;;;;;;;;;;;;;-144.99;100.00;61100.13;5085871;28;19978;-74
2022/03/05 08:39:12;;;;;;;;;;;;;;;-144.99;100.00;61100.13;5070624;28;20005;-76
2022/03/05 08:41:38;;;;;;;;;;;;;;;-144.99;100.00;61100.13;5074200;28;19980;-75
2022/03/05 08:44:05;;;;;;;;;;;;;;;-144.99;100.00;61100.13;5082668;28;19995;-74
2022/03/05 08:46:31;;;;;;;;;;;;;;;-144.99;100.00;61100.13;5074552;28;19985;-75
2022/03/05 08:48:58;;;;;;;;;;;;;;;-144.99;100.00;61100.13;5070364;28;20334;-75
2022/03/05 08:51:24;;;;;;;;;;;;;;;-144.99;100.00;61100.13;5074985;28;19985;-75
2022/03/05 08:53:50;;;;;;;;;;;;;;;-144.99;100.00;61100.13;5074042;28;19993;-75
2022/03/05 08:56:19;;;;;;;;;;;;;;;-144.99;100.00;61100.13;5074930;28;19973;-75
2022/03/05 08:58:45;;;;;;;;;;;;;;;-144.99;100.00;61100.13;5073361;28;20517;-75
2022/03/05 09:01:11;;;;;;;;;;;;;;;-144.99;100.00;61100.13;5081302;28;19990;-75
2022/03/05 09:03:37;;;;;;;;;;;;;;;-144.99;100.00;61100.13;5075170;28;19982;-76
2022/03/05 09:06:04;;;;;;;;;;;;;;;-144.99;100.00;61100.13;5076234;28;19972;-75
2022/03/05 09:08:31;;;;;;;;;;;;;;;-144.99;100.00;61100.13;5081158;28;19938;-74
2022/03/05 09:10:57;;;;;;;;;;;;;;;-144.99;100.00;61100.13;5084480;28;20375;-75
2022/03/05 09:13:25;;;;;;;;;;;;;;;-144.99;100.00;61100.13;5074903;28;19971;-75
2022/03/05 09:15:51;;;;;;;;;;;;;;;-144.99;100.00;61100.13;5084020;28;20443;-75
2022/03/05 09:18:17;;;;;;;;;;;;;;;-144.99;100.00;61100.13;5071330;28;19931;-75
2022/03/05 09:20:46;;;;;;;;;;;;;;;-144.99;100.00;61100.13;5083427;28;19942;-75
2022/03/05 09:23:13;;;;;;;;;;;;;;;-144.99;100.00;61100.13;5066356;28;20474;-75
2022/03/05 09:25:39;;;;;;;;;;;;;;;-144.99;100.00;61100.13;5074788;28;20033;-75
2022/03/05 09:28:05;;;;;;;;;;;;;;;-144.99;100.00;61100.13;5072971;28;19954;-75
2022/03/05 09:30:33;;;;;;;;;;;;;;;-144.99;100.00;61100.13;5086883;28;19946;-75
2022/03/05 09:32:59;;;;;;;;;;;;;;;-144.99;100.00;61100.13;5078291;28;19965;-75
2022/03/05 09:35:26;;;;;;;;;;;;;;;-144.99;100.00;61100.13;5075461;28;19955;-76
2022/03/05 09:37:52;;;;;;;;;;;;;;;-144.99;100.00;61100.13;5074659;28;19949;-75
2022/03/05 09:40:20;;;;;;;;;;;;;;;-144.99;100.00;61100.13;5079977;28;19945;-75
2022/03/05 09:42:47;;;;;;;;;;;;;;;-144.99;100.00;61100.13;5089280;28;20038;-73
2022/03/05 09:45:14;;;;;;;;;;;;;;;-144.99;100.00;61100.13;5072962;28;19937;-75
2022/03/05 09:47:42;;;;;;;;;;;;;;;-144.99;100.00;61100.13;5081113;28;19957;-76
2022/03/05 09:50:09;;;;;;;;;;;;;;;-144.99;100.00;61100.13;5077186;28;19947;-76
2022/03/05 09:52:36;;;;;;;;;;;;;;;-144.99;100.00;61100.13;5084831;28;19975;-76
2022/03/05 09:55:03;;;;;;;;;;;;;;;-144.99;100.00;61100.13;5072806;28;19924;-77
2022/03/05 09:57:29;;;;;;;;;;;;;;;-144.99;100.00;61100.13;5081980;28;19928;-76
2022/03/05 09:59:56;;;;;;;;;;;;;;;-144.99;100.00;61100.13;5074845;28;19928;-75
2022/03/05 10:02:22;;;;;;;;;;;;;;;-144.99;100.00;61100.13;5085663;28;19993;-76
2022/03/05 10:04:50;;;;;;;;;;;;;;;-144.99;100.00;61100.13;5073388;28;19975;-75
2022/03/05 10:07:17;;;;;;;;;;;;;;;-144.99;100.00;61100.13;5072748;28;19955;-76
2022/03/05 10:09:45;;;;;;;;;;;;;;;-144.99;100.00;61100.13;5080378;28;20454;-75
2022/03/05 10:12:25;;;;;;;;;;;;;;;-144.99;100.00;61100.13;5076410;28;19973;-76
2022/03/05 10:15:03;;;;;;;;;;;;;;;-144.99;100.00;61100.13;5081324;28;19943;-75
2022/03/05 10:17:30;;;;;;;;;;;;;;;-144.99;100.00;61100.13;5073295;28;19952;-75
2022/03/05 10:20:05;;;;;;;;;;;;;;;-144.99;100.00;61100.13;5073571;28;19982;-75
2022/03/05 10:22:31;;;;;;;;;;;;;;;-144.99;100.00;61100.13;5063661;28;19992;-75
2022/03/05 10:24:58;;;;;;;;;;;;;;;-144.99;100.00;61100.13;5065739;28;20460;-76
2022/03/05 10:27:24;;;;;;;;;;;;;;;-144.99;100.00;61100.13;5079131;28;19951;-75
2022/03/05 10:29:55;;;;;;;;;;;;;;;-144.99;100.00;61100.13;5075851;28;20458;-75
2022/03/05 10:32:22;;;;;;;;;;;;;;;-144.99;100.00;61100.13;5079765;28;20256;-75
2022/03/05 10:34:54;;;;;;;;;;;;;;;-144.99;100.00;61100.13;5072152;28;19955;-77
2022/03/05 10:37:23;;;;;;;;;;;;;;;-144.99;100.00;61100.13;5086026;28;20056;-76
2022/03/05 10:39:51;;;;;;;;;;;;;;;-144.99;100.00;61100.13;5075872;28;19980;-76
2022/03/05 10:42:17;;;;;;;;;;;;;;;-144.99;100.00;61100.13;5075254;28;19990;-78
2022/03/05 10:44:44;;;;;;;;;;;;;;;-144.99;100.00;61100.13;5073144;28;19975;-77
2022/03/05 10:47:10;;;;;;;;;;;;;;;-144.99;100.00;61100.13;5087814;28;19949;-74
2022/03/05 10:49:37;;;;;;;;;;;;;;;-144.99;100.00;61100.13;5075471;28;20580;-76
2022/03/05 10:52:07;;;;;;;;;;;;;;;-144.99;100.00;61100.13;5089488;28;19983;-76
2022/03/05 10:54:38;;;;;;;;;;;;;;;-144.99;100.00;61100.13;5071432;28;19955;-77
2022/03/05 10:57:08;;;;;;;;;;;;;;;-144.99;100.00;61100.13;5083460;28;19945;-76
2022/03/05 10:59:35;;;;;;;;;;;;;;;-144.99;100.00;61100.13;5056279;28;19949;-75
2022/03/05 11:02:02;;;;;;;;;;;;;;;-144.99;100.00;61100.13;5086222;28;20036;-75
2022/03/05 11:04:28;;;;;;;;;;;;;;;-144.99;100.00;61100.13;5074977;28;19981;-76
2022/03/05 11:06:55;;;;;;;;;;;;;;;-144.99;100.00;61100.13;5098114;22;19996;-73
2022/03/05 11:09:24;;;;;;;;;;;;;;;-144.99;100.00;61100.13;5061975;28;19973;-75
2022/03/05 11:11:52;;;;;;;;;;;;;;;-144.99;100.00;61100.13;5072746;28;20003;-74
2022/03/05 11:14:19;;;;;;;;;;;;;;;-144.99;100.00;61100.13;5076409;28;19984;-73
2022/03/05 11:16:45;;;;;;;;;;;;;;;-144.99;100.00;61100.13;5073470;28;19989;-73
2022/03/05 11:19:11;;;;;;;;;;;;;;;-144.99;100.00;61100.13;5072755;28;19973;-73
2022/03/05 11:21:38;;;;;;;;;;;;;;;-144.99;100.00;61100.13;5068729;28;19991;-74
2022/03/05 11:24:05;;;;;;;;;;;;;;;-144.99;100.00;61100.13;5072714;28;19981;-76
2022/03/05 11:26:34;;;;;;;;;;;;;;;-144.99;100.00;61100.13;5063040;28;20008;-76
2022/03/05 11:29:01;;;;;;;;;;;;;;;-144.99;100.00;61100.13;5072760;28;20004;-74
2022/03/05 11:31:30;;;;;;;;;;;;;;;-144.99;100.00;61100.13;5068540;28;20000;-74
2022/03/05 11:34:10;;;;;;;;;;;;;;;-144.99;100.00;61100.13;5072631;28;19981;-74
2022/03/05 11:36:38;;;;;;;;;;;;;;;-144.99;100.00;61100.13;5069467;28;20371;-74
2022/03/05 11:39:14;;;;;;;;;;;;;;;-144.99;100.00;61100.13;5072143;28;19977;-74
2022/03/05 11:41:59;;;;;;;;;;;;;;;-144.99;100.00;61100.13;5060119;28;19977;-76
2022/03/05 11:44:28;;;;;;;;;;;;;;;-144.99;100.00;61100.13;5072268;28;20379;-74
2022/03/05 11:47:13;;;;;;;;;;;;;;;-144.99;100.00;61100.13;5064201;28;20028;-75
2022/03/05 11:49:54;;;;;;;;;;;;;;;-144.99;100.00;61100.13;5060921;28;19984;-74
2022/03/05 11:52:21;;;;;;;;;;;;;;;-144.99;100.00;61100.13;5058178;28;19989;-73
2022/03/05 11:55:12;;;;;;;;;;;;;;;-144.99;100.00;61100.13;5072244;28;19985;-74
2022/03/05 11:57:39;;;;;;;;;;;;;;;-144.99;100.00;61100.13;5069811;28;20004;-75
2022/03/05 12:00:08;;;;;;;;;;;;;;;-144.99;100.00;61100.13;5067040;28;19980;-75
2022/03/05 12:02:42;;;;;;;;;;;;;;;-144.99;100.00;61100.13;5067865;28;20003;-74
2022/03/05 12:05:09;;;;;;;;;;;;;;;-144.99;100.00;61100.13;5072339;28;20026;-74
2022/03/05 12:07:36;;;;;;;;;;;;;;;-144.99;100.00;61100.13;5071870;28;20012;-73
2022/03/05 12:10:11;;;;;;;;;;;;;;;-144.99;100.00;61100.13;5069123;28;19973;-74
2022/03/05 12:12:51;;;;;;;;;;;;;;;-144.99;100.00;61100.13;5061621;28;20018;-74
2022/03/05 12:15:25;;;;;;;;;;;;;;;-144.99;100.00;61100.13;5065098;28;19976;-75
2022/03/05 12:17:52;;;;;;;;;;;;;;;-144.99;100.00;61100.13;5071570;28;20410;-73
2022/03/05 12:20:20;;;;;;;;;;;;;;;-144.99;100.00;61100.13;5062711;28;20012;-74